createdAt,value
2017-03-05T00:09:45.492Z,987.4
2017-03-05T00:20:00.324Z,987.5
2017-03-05T00:30:15.390Z,987.5
2017-03-05T00:40:28.586Z,987.7
2017-03-05T00:50:43.426Z,987.9
2017-03-05T01:00:57.239Z,988
2017-03-05T01:11:11.680Z,988.3
2017-03-05T01:21:26.167Z,988.6
2017-03-05T01:31:40.110Z,988.8
2017-03-05T01:41:53.237Z,989
2017-03-05T01:52:08.119Z,989.3
2017-03-05T02:02:23.177Z,989.5
2017-03-05T02:12:36.671Z,989.6
2017-03-05T02:22:51.232Z,989.6
2017-03-05T02:33:05.135Z,989.7
2017-03-05T02:43:19.222Z,989.7
2017-03-05T02:53:32.772Z,989.8
2017-03-05T03:03:47.423Z,989.9
2017-03-05T03:14:01.120Z,990.1
2017-03-05T03:24:14.353Z,990.2
2017-03-05T03:34:27.299Z,990.3
2017-03-05T03:44:41.557Z,990.4
2017-03-05T03:54:54.726Z,990.5
2017-03-05T04:05:08.702Z,990.6
2017-03-05T04:15:23.063Z,990.6
2017-03-05T04:25:37.392Z,990.6
2017-03-05T04:35:52.125Z,990.8
2017-03-05T04:46:07.330Z,990.8
2017-03-05T04:56:21.463Z,990.8
2017-03-05T05:06:34.789Z,990.9
2017-03-05T05:16:48.402Z,991
2017-03-05T05:27:03.293Z,991.1
2017-03-05T05:37:17.193Z,991.3
2017-03-05T05:47:30.800Z,991.3
2017-03-05T05:57:44.493Z,991.5
2017-03-05T06:07:59.085Z,991.7
2017-03-05T06:18:13.269Z,991.8
2017-03-05T06:28:27.563Z,992
2017-03-05T06:38:42.204Z,992.1
2017-03-05T06:48:56.256Z,992.2
2017-03-05T06:59:11.048Z,992.4
2017-03-05T07:09:24.106Z,992.5
2017-03-05T07:19:39.355Z,992.6
2017-03-05T07:29:53.810Z,992.7
2017-03-05T07:40:07.692Z,992.8
2017-03-05T07:50:20.843Z,992.8
2017-03-05T08:00:34.308Z,992.9
2017-03-05T08:10:49.066Z,992.9
2017-03-05T08:21:02.721Z,992.9
2017-03-05T08:31:17.624Z,992.9
2017-03-05T08:41:32.169Z,992.9
2017-03-05T08:51:46.863Z,993
2017-03-05T09:02:00.489Z,992.8
2017-03-05T09:12:14.340Z,992.9
2017-03-05T09:22:28.873Z,992.9
2017-03-05T09:32:43.439Z,992.7
2017-03-05T09:42:58.438Z,992.8
2017-03-05T09:53:11.591Z,992.8
2017-03-05T10:03:24.820Z,992.8
2017-03-05T10:13:39.907Z,992.6
2017-03-05T10:23:54.159Z,992.5
2017-03-05T10:34:08.437Z,992.4
2017-03-05T10:44:22.536Z,992.7
2017-03-05T10:54:37.050Z,992.5
2017-03-05T11:04:51.430Z,992.4
2017-03-05T11:15:04.713Z,992.2
2017-03-05T11:25:18.945Z,992.7
2017-03-05T11:35:33.782Z,992.3
2017-03-05T11:45:48.172Z,992.5
2017-03-05T11:56:02.691Z,992.2
2017-03-05T12:06:17.576Z,992.2
2017-03-05T12:16:31.619Z,992.2
2017-03-05T12:26:46.121Z,992.1
2017-03-05T12:36:59.322Z,991.9
2017-03-05T12:47:13.212Z,991.8
2017-03-05T12:57:26.804Z,991.7
2017-03-05T13:07:40.688Z,991.4
2017-03-05T13:17:54.797Z,991.4
2017-03-05T13:28:09.510Z,991.1
2017-03-05T13:38:28.691Z,991.2
2017-03-05T13:48:39.465Z,991.1
2017-03-05T13:58:54.026Z,990.8
2017-03-05T14:09:07.655Z,991.1
2017-03-05T14:19:21.995Z,990.7
2017-03-05T14:29:43.266Z,990.4
2017-03-05T14:39:50.046Z,990.4
2017-03-05T14:50:03.271Z,990.1
2017-03-05T15:00:17.472Z,990
2017-03-05T15:10:32.179Z,989.9
2017-03-05T15:20:45.659Z,990
2017-03-05T15:30:58.915Z,989.8
2017-03-05T15:41:12.102Z,989.8
2017-03-05T15:51:26.468Z,989.9
2017-03-05T16:01:40.616Z,989.8
2017-03-05T16:11:55.308Z,989.8
2017-03-05T16:32:22.791Z,990.1
2017-03-05T16:42:36.265Z,990
2017-03-05T16:52:49.466Z,990.1
2017-03-05T17:03:03.549Z,990
2017-03-05T17:13:18.664Z,990
2017-03-05T17:23:32.485Z,990
2017-03-05T17:33:46.930Z,990
2017-03-05T17:44:00.896Z,990
2017-03-05T17:54:14.504Z,990
2017-03-05T18:04:27.870Z,990
2017-03-05T18:14:42.118Z,990.1
2017-03-05T18:24:56.196Z,990.2
2017-03-05T18:35:09.480Z,990.3
2017-03-05T18:45:23.582Z,990.3
2017-03-05T18:55:38.549Z,990.1
2017-03-05T19:05:53.265Z,990.1
2017-03-05T19:16:07.077Z,990.1
2017-03-05T19:26:21.694Z,990
2017-03-05T19:36:35.311Z,990
2017-03-05T19:46:48.662Z,989.9
2017-03-05T19:57:03.297Z,989.9
2017-03-05T20:07:17.953Z,990
2017-03-05T20:17:31.839Z,990
2017-03-05T20:27:44.719Z,990
2017-03-05T20:37:59.016Z,990.1
2017-03-05T20:48:13.507Z,990.1
2017-03-05T20:58:27.790Z,990.2
2017-03-05T21:08:42.196Z,990.3
2017-03-05T21:18:56.555Z,990.3
2017-03-05T21:29:11.257Z,990.4
2017-03-05T21:39:24.560Z,990.5
2017-03-05T21:49:38.689Z,990.6
2017-03-05T21:59:52.754Z,990.7
2017-03-05T22:10:07.476Z,990.8
2017-03-05T22:20:21.886Z,990.8
2017-03-05T22:30:36.667Z,990.8
2017-03-05T22:40:51.086Z,990.9
2017-03-05T22:51:04.125Z,990.9
2017-03-05T23:01:18.432Z,991.1
2017-03-05T23:11:33.022Z,991.2
2017-03-05T23:21:48.024Z,991.3
2017-03-05T23:32:01.822Z,991.4
2017-03-05T23:42:15.078Z,991.5
2017-03-05T23:52:28.844Z,991.5
